Terminal Aerodrome Forecast
Issued by NWS

Home | Current Version | Previous Version | Text Only | Print | Product List | Glossary On
Versions: 1 2 3 4 5 6 7 8 9 10 11 12 13 14 15 16 17 18 19 20 21 22 23 24 25 26 27 28 29 30 31 32 33 34 35
000
FTUS46 KOTX 060707 AAA
TAFSFF
TAF AMD
KSFF 060707Z 0607/0706 22014G20KT P6SM -RA BKN045 OVC070
      WS020/23045KT
     FM060800 22018G26KT P6SM BKN050 BKN100
     FM061500 24011G20KT P6SM BKN080 BKN150
     FM062300 24009KT P6SM SCT050 BKN120
     FM070200 01002KT P6SM SCT020 BKN060=

USA.gov is the U.S. government's official web portal to all federal, state and local government web resources and services.